Cut Bank, MT

7:46 PM MDT on July 03, 2015 (GMT -0600)
Cut Bank, MT - North-West Side of Town | | Change Station
CLOSE
Current Station
Personal Weather Station
Location: Cut Bank, MT
Elevation: 3757 ft
Nearby Weather Stations

Elev 3757 ft 48.64 °N, 112.33 °W | Updated 21 seconds ago

Clear
Clear
93.9 °F
Feels Like 90 °F
N
2.7
Wind Variable Wind from NNW
Gusts 6.8 mph

Today
High -- | Low -- °F
--% Chance of Precip.
Yesterday
High -- | Low -- °F
Precip. -- in
5:32 AM 9:34 PM
Waning Gibbous, 95% visible
Pressure 29.73 in
Visibility 10.0 miles
Clouds Clear
Heat Index 90 °F
Dew Point 42 °F
Humidity 17%
Rainfall 0.00 in
Snow Depth Not available.
UV 2 out of 12
Pollen 5.80 out of 12
Air Quality Not available.
Flu Activity Not available.
METAR KCTB 040056Z AUTO 31003KT 10SM CLR 33/04 A2985 RMK AO2 SLP068 T03280039

More Conditions Fewer Conditions

Pressure 29.73 in
Visibility 10.0 miles
Clouds Clear
Heat Index 90 °F
Dew Point 42 °F
Humidity 17%
Rainfall 0.00 in
Snow Depth Not available.
UV 2 out of 12
Pollen 5.80 out of 12
Air Quality Not available.
Flu Activity Not available.
METAR KCTB 040056Z AUTO 31003KT 10SM CLR 33/04 A2985 RMK AO2 SLP068 T03280039

More Conditions Fewer Conditions

10-Day Weather Forecast

×

Almanac

Astronomy

Jul. 03, 2015 Rise Set
Actual Time
Civil Twilight
Nautical Twilight
Astronomical Twilight
Moon
Length of Visible Light
Length of Day
Tomorrow will be .
, % of the Moon is Illuminated

Today's Extremes

State Highs State Lows

Community

WunderPhotos

Upload Photos

1,834,868 photos uploaded!

WunderBlogs® & News

Nearby

Air Quality

  Air Quality AQ Index Pollutant
Not available.

Snow Depth

Station Depth Elevation

Earthquake Activity

City Distance Mag. Time & Date
Minimum magnitude displayed is 2.5.

Coastal Water Temperatures

Place Temperature

Stations

Nearby Weather Stations

Station Location Temp. Windchill Dew Point Humidity Wind Precip. Elev Updated Type